Time;durP1;ratioP1;P1;durP2;ratioP2;P2;SDS_P1;SDS_P2;PMS_P1;PMS_P2;Temp;Humidity;BMP_temperature;BMP_pressure;BME280_temperature;BME280_humidity;BME280_pressure;Samples;Min_cycle;Max_cycle;Signal;HPM_P1;HPM_P2
2023/01/05 00:00:54;;;;;;;119.45;61.85;;;;;;;;;;4991564;28;20060;-80
2023/01/05 00:03:20;;;;;;;115.70;58.90;;;;;;;;;;4995139;28;20085;-79
2023/01/05 00:05:46;;;;;;;113.30;57.08;;;;;;;;;;4975831;28;20034;-79
2023/01/05 00:08:14;;;;;;;119.65;57.63;;;;;;;;;;4975737;28;20038;-80
2023/01/05 00:24:29;;;;;;;129.93;59.22;;;;;;;;;;4992772;28;20030;-80
2023/01/05 00:26:55;;;;;;;144.00;65.20;;;;;;;;;;4997606;28;20534;-79
2023/01/05 00:29:23;;;;;;;138.85;69.55;;;;;;;;;;4973454;28;20034;-79
2023/01/05 00:31:50;;;;;;;148.90;75.90;;;;;;;;;;4974523;28;20026;-80
2023/01/05 00:34:15;;;;;;;148.40;75.68;;;;;;;;;;4974870;28;20045;-80
2023/01/05 00:36:41;;;;;;;142.40;73.20;;;;;;;;;;4976026;28;20121;-78
2023/01/05 00:39:07;;;;;;;148.88;74.78;;;;;;;;;;4966713;28;20034;-80
2023/01/05 00:41:33;;;;;;;147.20;79.50;;;;;;;;;;4991865;28;20054;-81
2023/01/05 00:44:02;;;;;;;140.13;74.47;;;;;;;;;;4981738;28;20357;-78
2023/01/05 00:46:30;;;;;;;122.32;64.13;;;;;;;;;;4991542;28;20038;-80
2023/01/05 00:48:57;;;;;;;119.47;63.42;;;;;;;;;;4993068;28;20026;-79
2023/01/05 00:51:23;;;;;;;119.90;62.83;;;;;;;;;;4975666;28;20581;-79
2023/01/05 00:53:49;;;;;;;102.90;56.15;;;;;;;;;;4975600;28;20420;-79
2023/01/05 00:56:14;;;;;;;107.13;59.35;;;;;;;;;;4975116;28;20041;-80
2023/01/05 00:58:40;;;;;;;94.25;51.22;;;;;;;;;;4966509;28;20038;-80
2023/01/05 01:01:11;;;;;;;84.03;46.97;;;;;;;;;;4975199;28;20037;-79
2023/01/05 01:03:37;;;;;;;75.60;46.08;;;;;;;;;;4975311;28;20038;-80
2023/01/05 01:06:03;;;;;;;77.65;46.35;;;;;;;;;;4975054;28;20048;-79
2023/01/05 01:08:29;;;;;;;91.07;52.35;;;;;;;;;;4992725;28;20034;-79
2023/01/05 01:10:56;;;;;;;106.65;59.13;;;;;;;;;;4979959;28;20484;-80
2023/01/05 01:13:23;;;;;;;94.80;55.30;;;;;;;;;;4972559;28;20117;-80
2023/01/05 01:15:49;;;;;;;89.35;50.60;;;;;;;;;;4972048;28;20042;-79
2023/01/05 01:18:15;;;;;;;88.13;48.35;;;;;;;;;;4955641;28;20042;-79
2023/01/05 01:20:44;;;;;;;84.65;48.35;;;;;;;;;;4953561;28;20488;-78
2023/01/05 01:23:09;;;;;;;86.32;50.47;;;;;;;;;;4972496;28;20440;-77
2023/01/05 01:25:37;;;;;;;90.00;50.10;;;;;;;;;;4973265;28;20061;-79
2023/01/05 01:28:06;;;;;;;84.93;49.65;;;;;;;;;;4971400;28;20027;-80
2023/01/05 01:30:32;;;;;;;83.53;50.50;;;;;;;;;;4955002;28;20046;-78
2023/01/05 01:33:01;;;;;;;95.90;53.42;;;;;;;;;;4956883;28;20038;-78
2023/01/05 01:35:27;;;;;;;89.07;50.97;;;;;;;;;;4972843;28;20033;-79
2023/01/05 01:37:55;;;;;;;94.43;52.15;;;;;;;;;;4972461;28;20027;-79
2023/01/05 01:40:21;;;;;;;102.53;54.08;;;;;;;;;;4973566;28;20019;-77
2023/01/05 01:42:47;;;;;;;97.07;53.13;;;;;;;;;;4973315;28;20046;-79
2023/01/05 01:45:24;;;;;;;95.78;51.50;;;;;;;;;;4971991;28;20117;-78
2023/01/05 01:47:58;;;;;;;87.38;49.63;;;;;;;;;;4972158;28;20078;-79
2023/01/05 01:50:31;;;;;;;93.40;50.63;;;;;;;;;;4973314;28;20038;-78
2023/01/05 01:53:03;;;;;;;97.63;52.92;;;;;;;;;;4973486;28;20057;-79
2023/01/05 01:55:31;;;;;;;100.32;54.20;;;;;;;;;;4972106;28;20038;-79
2023/01/05 01:58:01;;;;;;;98.10;53.55;;;;;;;;;;4973564;28;20081;-80
2023/01/05 02:00:27;;;;;;;97.60;52.90;;;;;;;;;;4988456;28;20042;-78
2023/01/05 02:02:55;;;;;;;101.45;55.17;;;;;;;;;;4981860;28;20027;-79
2023/01/05 02:05:28;;;;;;;87.68;49.33;;;;;;;;;;4956080;28;20034;-77
2023/01/05 02:07:55;;;;;;;108.03;58.08;;;;;;;;;;4973011;28;20497;-79
2023/01/05 02:10:53;;;;;;;85.07;48.00;;;;;;;;;;4955785;28;20030;-79
2023/01/05 02:13:19;;;;;;;75.00;43.85;;;;;;;;;;4965261;28;20054;-79
2023/01/05 02:16:03;;;;;;;69.28;42.45;;;;;;;;;;4939850;28;20453;-78
2023/01/05 02:18:50;;;;;;;62.67;38.55;;;;;;;;;;4939972;28;21051;-80
2023/01/05 02:21:19;;;;;;;61.10;37.97;;;;;;;;;;4955942;28;20035;-79
2023/01/05 02:24:07;;;;;;;64.78;39.00;;;;;;;;;;4955871;28;20033;-79
2023/01/05 02:27:17;;;;;;;76.25;42.50;;;;;;;;;;4957703;28;20030;-78
2023/01/05 02:30:19;;;;;;;88.18;47.50;;;;;;;;;;4960580;28;20051;-80
2023/01/05 02:32:57;;;;;;;86.10;47.03;;;;;;;;;;4975347;28;20042;-78
2023/01/05 02:35:43;;;;;;;98.15;51.33;;;;;;;;;;4977047;28;20449;-80
2023/01/05 02:38:17;;;;;;;100.15;53.53;;;;;;;;;;4975350;28;20066;-80
2023/01/05 02:40:48;;;;;;;105.72;60.30;;;;;;;;;;4976136;28;20400;-79
2023/01/05 02:43:19;;;;;;;115.38;62.00;;;;;;;;;;4991688;28;20031;-79
2023/01/05 02:45:46;;;;;;;91.85;49.00;;;;;;;;;;4975642;28;20042;-80
2023/01/05 02:48:15;;;;;;;82.72;45.53;;;;;;;;;;4976096;28;20019;-78
2023/01/05 02:50:50;;;;;;;79.97;44.72;;;;;;;;;;4991060;28;20081;-79
2023/01/05 02:53:46;;;;;;;80.88;45.22;;;;;;;;;;4974847;28;20035;-79
2023/01/05 02:56:23;;;;;;;89.85;51.67;;;;;;;;;;4973464;28;20039;-79
2023/01/05 02:59:22;;;;;;;99.30;56.33;;;;;;;;;;4975735;28;20047;-78
2023/01/05 03:01:56;;;;;;;105.30;58.83;;;;;;;;;;4948270;28;20093;-78
2023/01/05 03:04:29;;;;;;;92.18;51.08;;;;;;;;;;4976274;28;20038;-78
2023/01/05 03:07:03;;;;;;;94.78;52.90;;;;;;;;;;4959216;28;20524;-78
2023/01/05 03:09:35;;;;;;;84.53;46.50;;;;;;;;;;4958689;28;20557;-78
2023/01/05 03:15:23;;;;;;;70.07;40.47;;;;;;;;;;4958435;28;20043;-77
2023/01/05 03:17:59;;;;;;;64.70;37.70;;;;;;;;;;4958527;28;20066;-77
2023/01/05 03:20:31;;;;;;;66.10;38.53;;;;;;;;;;4961012;28;20038;-78
2023/01/05 03:37:52;;;;;;;93.90;45.50;;;;;;;;;;4954914;28;20050;-78
2023/01/05 03:40:26;;;;;;;95.72;44.67;;;;;;;;;;4957491;28;20042;-79
2023/01/05 03:42:54;;;;;;;88.93;44.20;;;;;;;;;;4974156;28;20039;-78
2023/01/05 03:45:21;;;;;;;70.53;41.42;;;;;;;;;;4941494;28;20027;-78
2023/01/05 03:47:49;;;;;;;72.43;41.42;;;;;;;;;;4958083;28;20492;-79
2023/01/05 03:50:21;;;;;;;67.63;39.17;;;;;;;;;;4973855;28;20113;-79
2023/01/05 03:52:47;;;;;;;73.65;40.47;;;;;;;;;;4957866;28;20050;-78
2023/01/05 03:55:16;;;;;;;70.80;40.78;;;;;;;;;;4942258;28;20022;-81
2023/01/05 03:57:42;;;;;;;66.57;39.15;;;;;;;;;;4957998;28;20034;-78
2023/01/05 04:00:09;;;;;;;77.63;41.83;;;;;;;;;;4975147;28;20412;-77
2023/01/05 04:02:43;;;;;;;72.10;42.33;;;;;;;;;;4973715;28;20393;-77
2023/01/05 04:05:13;;;;;;;68.07;41.38;;;;;;;;;;4957780;28;20122;-78
2023/01/05 04:07:39;;;;;;;81.65;43.92;;;;;;;;;;4957527;28;20031;-79
2023/01/05 04:10:09;;;;;;;83.22;43.92;;;;;;;;;;4957827;28;20556;-81
2023/01/05 04:12:35;;;;;;;77.40;43.67;;;;;;;;;;4958159;28;20113;-79
2023/01/05 04:15:04;;;;;;;77.65;43.95;;;;;;;;;;4975558;28;20065;-79
2023/01/05 04:17:32;;;;;;;76.88;43.55;;;;;;;;;;4972114;28;20034;-78
2023/01/05 04:19:58;;;;;;;77.45;43.10;;;;;;;;;;4958294;28;20114;-78
2023/01/05 04:22:23;;;;;;;69.85;40.33;;;;;;;;;;4975188;28;20027;-79
2023/01/05 04:24:49;;;;;;;68.85;41.17;;;;;;;;;;4957512;28;20070;-80
2023/01/05 04:27:17;;;;;;;70.82;40.13;;;;;;;;;;4956979;28;20078;-78
2023/01/05 04:29:44;;;;;;;75.65;41.45;;;;;;;;;;4957223;28;20043;-79
2023/01/05 04:32:11;;;;;;;66.55;38.53;;;;;;;;;;4957428;28;20034;-79
2023/01/05 04:34:41;;;;;;;66.80;41.67;;;;;;;;;;4957274;28;20098;-79
2023/01/05 04:37:07;;;;;;;61.88;39.13;;;;;;;;;;4957335;28;20122;-79
2023/01/05 04:39:34;;;;;;;65.82;40.05;;;;;;;;;;4974416;28;20051;-78
2023/01/05 04:42:01;;;;;;;73.85;41.33;;;;;;;;;;4957085;28;20037;-79
2023/01/05 04:44:30;;;;;;;71.20;41.97;;;;;;;;;;4974591;28;20035;-79
2023/01/05 04:46:58;;;;;;;75.57;40.72;;;;;;;;;;4957036;28;20046;-79
2023/01/05 04:49:25;;;;;;;79.97;44.65;;;;;;;;;;4973987;28;20113;-78
2023/01/05 04:51:52;;;;;;;78.15;44.22;;;;;;;;;;4940785;28;20035;-80
2023/01/05 04:54:20;;;;;;;84.10;46.15;;;;;;;;;;4940808;28;20096;-79
2023/01/05 04:56:46;;;;;;;75.45;44.13;;;;;;;;;;4956358;28;20459;-78
2023/01/05 04:59:13;;;;;;;82.57;45.65;;;;;;;;;;4956596;28;20046;-79
2023/01/05 05:01:40;;;;;;;80.68;44.08;;;;;;;;;;4973372;28;20030;-78
2023/01/05 05:04:10;;;;;;;92.82;46.53;;;;;;;;;;4956597;28;20031;-77
2023/01/05 05:06:36;;;;;;;84.10;46.63;;;;;;;;;;4973901;28;20035;-78
2023/01/05 05:09:04;;;;;;;89.03;48.10;;;;;;;;;;4959098;28;20037;-80
2023/01/05 05:11:30;;;;;;;94.10;49.28;;;;;;;;;;4965510;28;20410;-80
2023/01/05 05:13:56;;;;;;;99.60;51.00;;;;;;;;;;4972334;28;20396;-78
2023/01/05 05:16:23;;;;;;;89.43;51.28;;;;;;;;;;4938937;28;20489;-80
2023/01/05 05:18:51;;;;;;;82.68;47.67;;;;;;;;;;4954983;28;20050;-79
2023/01/05 05:21:21;;;;;;;91.07;48.63;;;;;;;;;;4955525;28;20046;-79
2023/01/05 05:23:47;;;;;;;96.22;49.88;;;;;;;;;;4972056;28;20068;-78
2023/01/05 05:26:13;;;;;;;90.20;47.38;;;;;;;;;;4954357;28;20053;-78
2023/01/05 05:28:40;;;;;;;89.68;46.33;;;;;;;;;;4971956;28;20070;-77
2023/01/05 05:31:06;;;;;;;86.22;43.90;;;;;;;;;;4972412;28;20034;-79
2023/01/05 05:33:33;;;;;;;77.20;41.53;;;;;;;;;;4973259;28;20049;-78
2023/01/05 05:35:58;;;;;;;77.78;41.83;;;;;;;;;;4972649;28;20404;-79
2023/01/05 05:38:24;;;;;;;70.32;39.90;;;;;;;;;;4970535;28;20080;-77
2023/01/05 05:40:51;;;;;;;71.53;38.67;;;;;;;;;;4972889;28;20372;-78
2023/01/05 05:43:17;;;;;;;59.72;36.13;;;;;;;;;;4955572;28;20050;-79
2023/01/05 05:45:44;;;;;;;61.80;35.22;;;;;;;;;;4973910;28;20022;-79
2023/01/05 05:48:10;;;;;;;54.20;33.90;;;;;;;;;;4970059;28;20034;-77
2023/01/05 05:50:37;;;;;;;65.38;33.80;;;;;;;;;;4940694;28;20508;-82
2023/01/05 05:53:06;;;;;;;60.10;33.53;;;;;;;;;;4974104;28;20216;-82
2023/01/05 05:55:33;;;;;;;58.08;33.10;;;;;;;;;;4949211;28;20050;-81
2023/01/05 05:57:59;;;;;;;67.80;36.45;;;;;;;;;;4973468;28;20045;-84
2023/01/05 06:00:25;;;;;;;43.35;27.90;;;;;;;;;;4963207;28;20042;-84
2023/01/05 06:02:51;;;;;;;50.50;27.85;;;;;;;;;;4984512;28;20408;-84
2023/01/05 06:05:16;;;;;;;50.15;27.65;;;;;;;;;;4981369;28;20437;-87
2023/01/05 06:07:42;;;;;;;46.05;27.58;;;;;;;;;;4966229;28;20074;-81
2023/01/05 06:10:09;;;;;;;47.95;28.55;;;;;;;;;;4977867;28;20042;-77
2023/01/05 06:12:34;;;;;;;39.90;25.75;;;;;;;;;;4975931;28;20054;-78
2023/01/05 06:15:00;;;;;;;46.65;24.95;;;;;;;;;;4958099;28;20570;-79
2023/01/05 06:17:26;;;;;;;45.45;27.38;;;;;;;;;;4976036;28;20057;-78
2023/01/05 06:19:52;;;;;;;40.47;26.35;;;;;;;;;;4975806;28;20047;-78
2023/01/05 06:22:19;;;;;;;53.83;29.02;;;;;;;;;;4975580;28;20146;-78
2023/01/05 06:24:47;;;;;;;44.97;27.73;;;;;;;;;;4976110;28;20042;-78
2023/01/05 06:27:14;;;;;;;50.58;29.23;;;;;;;;;;4977459;28;20041;-78
2023/01/05 06:29:39;;;;;;;49.80;29.98;;;;;;;;;;4976432;28;20038;-78
2023/01/05 06:32:05;;;;;;;47.20;28.52;;;;;;;;;;4975928;28;20043;-79
2023/01/05 06:34:31;;;;;;;44.05;26.77;;;;;;;;;;4973981;28;20085;-78
2023/01/05 06:36:57;;;;;;;45.80;26.67;;;;;;;;;;4974164;28;20034;-78
2023/01/05 06:39:25;;;;;;;52.78;28.30;;;;;;;;;;4940298;28;20382;-78
2023/01/05 06:41:52;;;;;;;50.45;26.85;;;;;;;;;;4975948;28;20046;-77
2023/01/05 06:44:18;;;;;;;46.42;27.00;;;;;;;;;;4974835;28;20413;-78
2023/01/05 06:46:44;;;;;;;50.42;25.70;;;;;;;;;;4974915;28;20488;-78
2023/01/05 06:49:11;;;;;;;50.22;26.10;;;;;;;;;;4975293;28;20366;-78
2023/01/05 06:51:39;;;;;;;44.75;27.20;;;;;;;;;;4958264;28;20412;-79
2023/01/05 06:54:06;;;;;;;53.15;30.65;;;;;;;;;;4975129;28;20062;-78
2023/01/05 06:56:33;;;;;;;58.55;29.65;;;;;;;;;;4975923;28;20146;-78
2023/01/05 06:58:59;;;;;;;51.10;28.92;;;;;;;;;;4974264;28;20331;-78
2023/01/05 07:01:25;;;;;;;55.30;31.50;;;;;;;;;;4975817;28;20031;-78
2023/01/05 07:03:52;;;;;;;56.85;31.15;;;;;;;;;;4974472;28;20401;-78
2023/01/05 07:06:18;;;;;;;49.42;28.63;;;;;;;;;;4975670;28;20035;-77
2023/01/05 07:08:45;;;;;;;58.50;30.17;;;;;;;;;;4957730;28;20023;-78
2023/01/05 07:11:10;;;;;;;50.75;28.23;;;;;;;;;;4956137;28;20026;-78
2023/01/05 07:13:36;;;;;;;52.83;28.85;;;;;;;;;;4970796;28;20102;-78
2023/01/05 07:16:02;;;;;;;48.28;28.42;;;;;;;;;;4970559;28;20474;-77
2023/01/05 07:18:28;;;;;;;48.42;28.95;;;;;;;;;;4954221;28;20240;-78
2023/01/05 07:20:54;;;;;;;43.05;26.30;;;;;;;;;;4955901;28;20062;-78
2023/01/05 07:23:20;;;;;;;46.30;27.65;;;;;;;;;;4938040;29;20401;-77
2023/01/05 07:25:46;;;;;;;44.75;28.35;;;;;;;;;;4970213;28;20427;-79
2023/01/05 07:28:13;;;;;;;46.90;27.23;;;;;;;;;;4953651;29;20020;-77
2023/01/05 07:30:41;;;;;;;49.53;31.67;;;;;;;;;;4955215;28;20079;-79
2023/01/05 07:33:07;;;;;;;61.97;34.00;;;;;;;;;;4955320;28;20572;-79
2023/01/05 07:35:33;;;;;;;59.15;33.67;;;;;;;;;;4953634;28;20146;-78
2023/01/05 07:38:00;;;;;;;58.08;34.35;;;;;;;;;;4969902;28;20118;-79
2023/01/05 07:40:27;;;;;;;55.30;33.30;;;;;;;;;;4969867;28;20091;-78
2023/01/05 07:42:53;;;;;;;54.65;31.40;;;;;;;;;;4955517;28;20388;-80
2023/01/05 07:45:22;;;;;;;55.33;31.75;;;;;;;;;;4954186;29;20039;-82
2023/01/05 07:47:49;;;;;;;52.53;31.10;;;;;;;;;;4950830;29;20042;-78
2023/01/05 07:50:21;;;;;;;48.55;29.13;;;;;;;;;;4936952;29;20115;-79
2023/01/05 07:52:47;;;;;;;51.67;31.05;;;;;;;;;;4935423;29;20119;-82
2023/01/05 07:55:14;;;;;;;50.70;30.40;;;;;;;;;;4935215;29;20506;-78
2023/01/05 07:57:41;;;;;;;47.58;28.75;;;;;;;;;;4936353;29;20399;-80
2023/01/05 08:00:10;;;;;;;49.70;29.85;;;;;;;;;;4942672;28;20114;-81
2023/01/05 08:02:38;;;;;;;47.72;29.58;;;;;;;;;;4970474;28;20473;-82
2023/01/05 08:05:06;;;;;;;47.50;29.02;;;;;;;;;;4955088;28;20031;-81
2023/01/05 08:07:34;;;;;;;50.33;30.25;;;;;;;;;;4954911;29;20039;-81
2023/01/05 08:15:32;;;;;;;48.65;28.50;;;;;;;;;;4955021;29;20036;-82
2023/01/05 08:17:57;;;;;;;46.97;29.02;;;;;;;;;;4937132;29;20050;-79
2023/01/05 08:20:25;;;;;;;49.65;28.65;;;;;;;;;;4954136;28;20039;-80
2023/01/05 08:22:53;;;;;;;51.33;30.17;;;;;;;;;;4953167;29;20493;-80
2023/01/05 08:25:20;;;;;;;47.15;30.58;;;;;;;;;;4955848;28;20492;-80
2023/01/05 08:27:46;;;;;;;53.65;29.42;;;;;;;;;;4956130;29;20023;-78
2023/01/05 08:30:13;;;;;;;50.85;29.35;;;;;;;;;;4954027;28;20043;-81
2023/01/05 08:32:41;;;;;;;50.28;29.05;;;;;;;;;;4954009;28;20067;-77
2023/01/05 08:35:07;;;;;;;45.72;29.88;;;;;;;;;;4955291;28;20438;-79
2023/01/05 08:37:33;;;;;;;50.53;29.60;;;;;;;;;;4966674;28;20019;-80
2023/01/05 08:40:00;;;;;;;43.50;29.10;;;;;;;;;;4952899;28;20397;-80
2023/01/05 08:42:27;;;;;;;48.22;29.08;;;;;;;;;;4968431;28;20110;-81
2023/01/05 08:44:53;;;;;;;46.05;28.00;;;;;;;;;;4953335;28;20035;-79
2023/01/05 08:47:19;;;;;;;49.33;29.40;;;;;;;;;;4952427;28;20453;-78
2023/01/05 08:49:46;;;;;;;47.67;30.67;;;;;;;;;;4953211;28;20053;-78
2023/01/05 08:52:12;;;;;;;54.40;32.38;;;;;;;;;;4953211;28;20448;-80
2023/01/05 08:54:38;;;;;;;50.35;32.53;;;;;;;;;;4935359;29;20074;-79
2023/01/05 08:57:03;;;;;;;56.20;33.78;;;;;;;;;;4952952;28;20444;-80
2023/01/05 08:59:29;;;;;;;66.43;35.72;;;;;;;;;;4952020;29;20049;-81
2023/01/05 09:01:56;;;;;;;62.67;35.25;;;;;;;;;;4955498;28;20031;-80
2023/01/05 09:04:28;;;;;;;58.40;34.78;;;;;;;;;;4951152;28;20489;-80
2023/01/05 09:06:55;;;;;;;59.58;35.63;;;;;;;;;;4948855;29;20043;-82
2023/01/05 09:09:23;;;;;;;55.92;35.42;;;;;;;;;;4952874;29;20023;-81
2023/01/05 09:11:49;;;;;;;62.95;35.75;;;;;;;;;;4962641;28;20536;-81
2023/01/05 09:14:15;;;;;;;55.90;36.20;;;;;;;;;;4916549;28;1369924;-78
2023/01/05 09:16:41;;;;;;;65.55;38.00;;;;;;;;;;4963098;28;20069;-78
2023/01/05 09:19:08;;;;;;;59.40;36.90;;;;;;;;;;4963435;28;20439;-80
2023/01/05 09:21:38;;;;;;;63.03;36.75;;;;;;;;;;4970106;28;20062;-78
2023/01/05 09:24:06;;;;;;;61.65;36.03;;;;;;;;;;4973034;28;20027;-79
2023/01/05 09:26:32;;;;;;;60.25;39.45;;;;;;;;;;4972136;28;20110;-79
2023/01/05 09:28:59;;;;;;;61.15;37.47;;;;;;;;;;4970827;28;20365;-78
2023/01/05 09:31:28;;;;;;;51.05;33.80;;;;;;;;;;4968424;28;20039;-78
2023/01/05 09:33:56;;;;;;;47.20;31.80;;;;;;;;;;4961988;28;20035;-79
2023/01/05 09:36:24;;;;;;;54.13;34.30;;;;;;;;;;4963894;28;20047;-79
2023/01/05 09:38:55;;;;;;;49.78;32.53;;;;;;;;;;4964605;28;20031;-79
2023/01/05 09:41:43;;;;;;;52.47;34.53;;;;;;;;;;4972571;28;20122;-79
2023/01/05 09:44:30;;;;;;;60.58;31.95;;;;;;;;;;4966182;28;20074;-77
2023/01/05 09:47:14;;;;;;;50.40;32.05;;;;;;;;;;4976057;28;20035;-79
2023/01/05 09:49:41;;;;;;;48.67;32.20;;;;;;;;;;4974403;28;20026;-78
2023/01/05 09:52:09;;;;;;;42.03;29.52;;;;;;;;;;4976484;28;20054;-78
2023/01/05 09:54:37;;;;;;;54.97;35.00;;;;;;;;;;4955968;28;20037;-79
2023/01/05 09:57:04;;;;;;;58.97;33.60;;;;;;;;;;4947953;28;20042;-80
2023/01/05 09:59:50;;;;;;;44.33;30.85;;;;;;;;;;4945586;28;20042;-80
2023/01/05 10:02:31;;;;;;;46.17;31.70;;;;;;;;;;4976037;28;20081;-80
2023/01/05 10:04:59;;;;;;;52.72;32.65;;;;;;;;;;4976252;28;20034;-77
2023/01/05 10:07:50;;;;;;;52.53;34.17;;;;;;;;;;4943717;28;20035;-78
2023/01/05 10:10:25;;;;;;;49.65;32.83;;;;;;;;;;4970491;28;20043;-79
2023/01/05 10:13:02;;;;;;;51.17;32.60;;;;;;;;;;4975843;28;20452;-79
2023/01/05 10:15:39;;;;;;;47.95;31.67;;;;;;;;;;4958557;28;20066;-81
2023/01/05 10:18:26;;;;;;;56.75;33.75;;;;;;;;;;4974910;28;20045;-77
2023/01/05 10:21:10;;;;;;;49.75;29.45;;;;;;;;;;4974286;28;20538;-78
2023/01/05 10:23:45;;;;;;;51.35;31.73;;;;;;;;;;4975081;28;20031;-78
2023/01/05 10:26:25;;;;;;;39.13;24.60;;;;;;;;;;4956241;28;20042;-80
2023/01/05 10:29:05;;;;;;;35.70;23.48;;;;;;;;;;4976386;28;20037;-76
2023/01/05 10:32:03;;;;;;;35.13;21.95;;;;;;;;;;4991322;28;20049;-78
2023/01/05 10:34:51;;;;;;;34.08;21.48;;;;;;;;;;4991980;28;20149;-79
2023/01/05 10:37:39;;;;;;;31.02;19.08;;;;;;;;;;4984080;28;20042;-79
2023/01/05 10:40:26;;;;;;;30.70;20.38;;;;;;;;;;4993413;28;20031;-78
2023/01/05 10:43:15;;;;;;;29.33;20.15;;;;;;;;;;4992304;28;20049;-79
2023/01/05 10:45:42;;;;;;;34.30;20.48;;;;;;;;;;4993858;28;20030;-79
2023/01/05 10:48:22;;;;;;;27.50;17.73;;;;;;;;;;4991051;28;20130;-79
2023/01/05 10:50:51;;;;;;;27.83;18.25;;;;;;;;;;4993887;28;20030;-78
2023/01/05 10:53:23;;;;;;;27.88;17.88;;;;;;;;;;4992761;28;20104;-79
2023/01/05 10:56:03;;;;;;;31.38;20.40;;;;;;;;;;4976154;28;20064;-78
2023/01/05 10:58:34;;;;;;;31.20;19.08;;;;;;;;;;4993477;28;20038;-78
2023/01/05 11:01:24;;;;;;;26.50;17.77;;;;;;;;;;4993340;28;20026;-79
2023/01/05 11:04:04;;;;;;;33.53;19.55;;;;;;;;;;4987911;28;20113;-79
2023/01/05 11:06:33;;;;;;;27.73;18.45;;;;;;;;;;4975508;28;20061;-79
2023/01/05 11:09:25;;;;;;;29.27;18.65;;;;;;;;;;4993671;28;20122;-78
2023/01/05 11:11:56;;;;;;;29.77;18.83;;;;;;;;;;4971282;28;20424;-81
2023/01/05 11:14:22;;;;;;;32.88;20.20;;;;;;;;;;4991595;28;20045;-80
2023/01/05 11:16:52;;;;;;;27.90;19.40;;;;;;;;;;4991105;28;20409;-78
2023/01/05 11:19:28;;;;;;;26.65;17.08;;;;;;;;;;4992339;28;20039;-78
2023/01/05 11:21:54;;;;;;;29.30;19.73;;;;;;;;;;4991813;28;20043;-79
2023/01/05 11:24:34;;;;;;;28.25;18.08;;;;;;;;;;4974309;28;20038;-80
2023/01/05 11:27:21;;;;;;;28.55;17.02;;;;;;;;;;4992943;28;20034;-78
2023/01/05 11:30:17;;;;;;;26.75;17.77;;;;;;;;;;4990310;28;20110;-78
2023/01/05 11:32:45;;;;;;;30.35;17.58;;;;;;;;;;4990288;28;20066;-79
2023/01/05 11:35:30;;;;;;;25.15;16.63;;;;;;;;;;4992722;28;20034;-79
2023/01/05 11:37:57;;;;;;;30.08;21.02;;;;;;;;;;4987452;28;20389;-79
2023/01/05 11:40:29;;;;;;;27.67;18.33;;;;;;;;;;4977589;28;20030;-79
2023/01/05 11:42:57;;;;;;;27.77;18.50;;;;;;;;;;4992590;28;20027;-79
2023/01/05 11:45:28;;;;;;;30.17;18.63;;;;;;;;;;5004840;28;20022;-78
2023/01/05 11:48:02;;;;;;;28.90;18.77;;;;;;;;;;4992121;28;20408;-78
2023/01/05 11:50:45;;;;;;;25.98;17.73;;;;;;;;;;4992404;28;20045;-78
2023/01/05 11:53:22;;;;;;;;;;;;;;;;;;4975587;28;20041;-78
2023/01/05 11:56:18;;;;;;;24.30;16.02;;;;;;;;;;4975496;28;19988;-76
2023/01/05 11:59:03;;;;;;;26.10;16.35;;;;;;;;;;4988384;28;20046;-85
2023/01/05 12:01:41;;;;;;;33.05;16.88;;;;;;;;;;4993215;28;20057;-82
2023/01/05 12:04:18;;;;;;;27.40;18.23;;;;;;;;;;4990315;28;20030;-80
2023/01/05 12:07:04;;;;;;;29.80;17.92;;;;;;;;;;4990639;28;20066;-81
2023/01/05 12:09:39;;;;;;;30.55;18.13;;;;;;;;;;4990335;28;20022;-80
2023/01/05 12:12:22;;;;;;;26.98;18.42;;;;;;;;;;4972722;28;20110;-80
2023/01/05 12:15:28;;;;;;;27.70;17.85;;;;;;;;;;4991056;28;20062;-80
2023/01/05 12:18:28;;;;;;;27.00;16.63;;;;;;;;;;4991152;28;20702;-80
2023/01/05 12:21:17;;;;;;;28.13;17.10;;;;;;;;;;4992886;28;20061;-80
2023/01/05 12:24:01;;;;;;;33.15;17.60;;;;;;;;;;4992931;28;20122;-77
2023/01/05 12:26:32;;;;;;;26.40;17.15;;;;;;;;;;4992544;28;20041;-80
2023/01/05 12:29:04;;;;;;;33.88;18.70;;;;;;;;;;5000456;28;20432;-79
2023/01/05 12:32:08;;;;;;;39.05;19.60;;;;;;;;;;5010997;28;20029;-85
2023/01/05 12:34:37;;;;;;;30.40;17.90;;;;;;;;;;5013118;28;20377;-85
2023/01/05 12:37:24;;;;;;;31.90;17.50;;;;;;;;;;5012788;28;20066;-84
2023/01/05 12:40:10;;;;;;;28.10;16.90;;;;;;;;;;4994202;28;20037;-85
2023/01/05 12:42:59;;;;;;;28.38;17.30;;;;;;;;;;5012663;28;20049;-86
2023/01/05 12:46:04;;;;;;;36.17;19.27;;;;;;;;;;5013979;28;20048;-87
2023/01/05 12:48:44;;;;;;;24.73;17.25;;;;;;;;;;4998941;28;20491;-83
2023/01/05 12:51:31;;;;;;;21.98;15.07;;;;;;;;;;5020864;28;20380;-86
2023/01/05 12:53:57;;;;;;;;;;;;;;;;;;5017026;28;20038;-86
2023/01/05 12:56:35;;;;;;;25.45;16.00;;;;;;;;;;5013909;28;19909;-78
2023/01/05 12:59:07;;;;;;;22.65;15.70;;;;;;;;;;5011951;28;20502;-78
2023/01/05 13:02:02;;;;;;;19.38;13.60;;;;;;;;;;5012234;28;20038;-79
2023/01/05 13:04:52;;;;;;;21.52;15.13;;;;;;;;;;5012153;28;20026;-78
2023/01/05 13:07:43;;;;;;;23.33;15.38;;;;;;;;;;5012078;28;20038;-78
2023/01/05 13:10:46;;;;;;;31.10;17.63;;;;;;;;;;4993978;28;20034;-76
2023/01/05 13:13:16;;;;;;;29.23;18.60;;;;;;;;;;4987544;28;20054;-79
2023/01/05 13:15:50;;;;;;;27.92;19.38;;;;;;;;;;4991674;28;20109;-77
2023/01/05 13:18:18;;;;;;;26.70;15.60;;;;;;;;;;4975033;28;20038;-77
2023/01/05 13:21:02;;;;;;;26.38;16.13;;;;;;;;;;4978693;28;20034;-76
2023/01/05 13:23:37;;;;;;;30.92;16.45;;;;;;;;;;4992130;28;20129;-76
2023/01/05 13:26:13;;;;;;;28.33;17.15;;;;;;;;;;4989030;28;20037;-80
2023/01/05 13:28:44;;;;;;;26.73;16.92;;;;;;;;;;4953225;28;20116;-80
2023/01/05 13:31:32;;;;;;;24.42;17.55;;;;;;;;;;4975104;28;20050;-81
2023/01/05 13:34:13;;;;;;;32.28;18.65;;;;;;;;;;4957084;28;20113;-78
2023/01/05 13:37:01;;;;;;;26.27;17.45;;;;;;;;;;4982613;28;20037;-82
2023/01/05 13:39:46;;;;;;;31.83;19.42;;;;;;;;;;4984585;28;20177;-77
2023/01/05 13:42:34;;;;;;;25.02;16.75;;;;;;;;;;4990182;28;20037;-81
2023/01/05 13:45:22;;;;;;;21.63;15.15;;;;;;;;;;4991152;28;20023;-79
2023/01/05 13:47:51;;;;;;;23.50;16.02;;;;;;;;;;4973862;28;20042;-78
2023/01/05 13:50:35;;;;;;;23.13;16.95;;;;;;;;;;4974118;28;20023;-79
2023/01/05 13:53:17;;;;;;;26.00;17.27;;;;;;;;;;4974165;28;20122;-80
2023/01/05 13:55:59;;;;;;;27.52;17.63;;;;;;;;;;4990544;28;20038;-78
2023/01/05 13:58:37;;;;;;;25.50;15.98;;;;;;;;;;4989483;28;20081;-79
2023/01/05 14:01:08;;;;;;;27.38;17.73;;;;;;;;;;4990995;28;20149;-79
2023/01/05 14:03:38;;;;;;;24.98;17.17;;;;;;;;;;4990043;28;20050;-80
2023/01/05 14:06:17;;;;;;;33.67;18.48;;;;;;;;;;4991680;28;20455;-80
2023/01/05 14:08:58;;;;;;;24.92;16.30;;;;;;;;;;4991257;28;20116;-77
2023/01/05 14:11:26;;;;;;;25.17;16.27;;;;;;;;;;4990014;28;20045;-80
2023/01/05 14:14:22;;;;;;;31.75;19.65;;;;;;;;;;4972729;28;20046;-81
2023/01/05 14:16:52;;;;;;;26.67;17.58;;;;;;;;;;4990332;28;20534;-78
2023/01/05 14:19:45;;;;;;;30.25;20.40;;;;;;;;;;4966332;28;20030;-79
2023/01/05 14:22:17;;;;;;;25.75;17.83;;;;;;;;;;4983536;28;20038;-79
2023/01/05 14:24:48;;;;;;;25.95;17.45;;;;;;;;;;4994945;28;20476;-79
2023/01/05 14:27:16;;;;;;;33.38;19.45;;;;;;;;;;4989584;28;20046;-79
2023/01/05 14:29:47;;;;;;;28.50;18.45;;;;;;;;;;4994870;28;20030;-80
2023/01/05 14:32:28;;;;;;;33.60;20.67;;;;;;;;;;4994864;28;20121;-79
2023/01/05 14:35:08;;;;;;;31.77;21.55;;;;;;;;;;4994054;28;20173;-79
2023/01/05 14:37:58;;;;;;;36.22;24.00;;;;;;;;;;4994381;28;20030;-78
2023/01/05 14:40:32;;;;;;;26.27;17.95;;;;;;;;;;4994920;28;20451;-78
2023/01/05 14:43:01;;;;;;;28.92;19.40;;;;;;;;;;4995516;28;20032;-80
2023/01/05 14:45:32;;;;;;;35.28;20.27;;;;;;;;;;4995467;28;20045;-78
2023/01/05 14:48:06;;;;;;;35.03;22.05;;;;;;;;;;4995273;28;20038;-79
2023/01/05 14:50:38;;;;;;;35.95;21.23;;;;;;;;;;4995229;28;20026;-78
2023/01/05 14:53:35;;;;;;;34.58;22.30;;;;;;;;;;4994002;28;20053;-77
2023/01/05 14:56:02;;;;;;;35.30;20.30;;;;;;;;;;4995136;28;20096;-79
2023/01/05 14:58:37;;;;;;;34.78;23.00;;;;;;;;;;4995198;28;20033;-77
2023/01/05 15:01:15;;;;;;;36.85;23.77;;;;;;;;;;4993526;28;20037;-78
2023/01/05 15:04:08;;;;;;;38.50;25.40;;;;;;;;;;4994171;28;20038;-79
2023/01/05 15:06:33;;;;;;;42.58;25.50;;;;;;;;;;4997044;28;20433;-79
2023/01/05 15:09:27;;;;;;;30.58;17.65;;;;;;;;;;4983455;28;20033;-78
2023/01/05 15:12:12;;;;;;;30.55;20.13;;;;;;;;;;4975248;28;20109;-82
2023/01/05 15:15:07;;;;;;;41.58;27.35;;;;;;;;;;4977244;28;20026;-78
2023/01/05 15:17:52;;;;;;;49.75;30.63;;;;;;;;;;4995264;28;20101;-80
2023/01/05 15:20:37;;;;;;;44.63;28.98;;;;;;;;;;4990735;28;20034;-80
2023/01/05 15:23:38;;;;;;;52.65;31.08;;;;;;;;;;4991207;28;20484;-79
2023/01/05 15:26:25;;;;;;;50.70;30.17;;;;;;;;;;4993259;28;20038;-81